Terminal Aerodrome Forecast
Issued by NWS

Home | Current Version | Previous Version | Text Only | Print | Product List | Glossary On
Versions: 1 2 3 4 5 6 7 8 9 10 11 12 13 14 15 16 17 18 19 20
000
FTUS46 KMFR 012341
TAFRBG
TAF
KRBG 012341Z 0200/0224 35008KT P6SM VCSH SCT030 BKN050
     FM020600 VRB03KT P6SM SCT025
     FM020900 00000KT P6SM BKN020
     FM021400 00000KT P6SM BKN015 OVC025
     FM021600 36004KT P6SM FEW050=

USA.gov is the U.S. government's official web portal to all federal, state and local government web resources and services.